Time;durP1;ratioP1;P1;durP2;ratioP2;P2;SDS_P1;SDS_P2;PMS_P1;PMS_P2;Temp;Humidity;BMP_temperature;BMP_pressure;BME280_temperature;BME280_humidity;BME280_pressure;Samples;Min_cycle;Max_cycle;Signal;HPM_P1;HPM_P2
2024/01/12 00:01:53;;;;;;;2.30;2.00;;;;;;;;;;5018084;28;20030;-61
2024/01/12 00:04:19;;;;;;;3.08;1.90;;;;;;;;;;5013628;28;20033;-61
2024/01/12 00:06:46;;;;;;;2.95;1.65;;;;;;;;;;5017507;28;20037;-61
2024/01/12 00:09:12;;;;;;;1.90;1.80;;;;;;;;;;5013817;28;20755;-65
2024/01/12 00:11:38;;;;;;;2.17;1.60;;;;;;;;;;5023530;28;20025;-63
2024/01/12 00:14:04;;;;;;;2.30;2.00;;;;;;;;;;5017006;28;20526;-61
2024/01/12 00:16:31;;;;;;;3.65;2.08;;;;;;;;;;5019105;28;20016;-62
2024/01/12 00:18:57;;;;;;;3.53;1.90;;;;;;;;;;5016916;28;20033;-61
2024/01/12 00:21:23;;;;;;;1.90;1.77;;;;;;;;;;5020692;28;20025;-61
2024/01/12 00:23:49;;;;;;;2.75;1.75;;;;;;;;;;5018815;28;20026;-61
2024/01/12 00:26:15;;;;;;;1.77;1.67;;;;;;;;;;5017637;28;20467;-62
2024/01/12 00:28:42;;;;;;;1.73;1.63;;;;;;;;;;5014645;28;20481;-62
2024/01/12 00:31:08;;;;;;;2.88;1.60;;;;;;;;;;5010786;28;20040;-61
2024/01/12 00:33:34;;;;;;;4.85;2.10;;;;;;;;;;5021499;28;20029;-61
2024/01/12 00:36:00;;;;;;;2.20;2.00;;;;;;;;;;5011656;28;20382;-61
2024/01/12 00:38:27;;;;;;;2.15;1.40;;;;;;;;;;5021180;28;20029;-62
2024/01/12 00:40:53;;;;;;;4.80;3.58;;;;;;;;;;5025034;28;20366;-66
2024/01/12 00:43:19;;;;;;;6.10;1.92;;;;;;;;;;5019507;28;20393;-61
2024/01/12 00:45:45;;;;;;;1.98;1.88;;;;;;;;;;5016305;28;20034;-63
2024/01/12 00:48:11;;;;;;;1.55;1.45;;;;;;;;;;5023682;28;20033;-62
2024/01/12 00:50:37;;;;;;;1.70;1.60;;;;;;;;;;5019278;28;20506;-62
2024/01/12 00:53:04;;;;;;;2.28;2.00;;;;;;;;;;5013588;28;20034;-62
2024/01/12 00:55:30;;;;;;;3.28;1.85;;;;;;;;;;5015958;28;20032;-62
2024/01/12 00:57:57;;;;;;;1.60;1.50;;;;;;;;;;5033404;28;20389;-64
2024/01/12 01:00:23;;;;;;;1.80;1.70;;;;;;;;;;5012830;28;20038;-61
2024/01/12 01:02:49;;;;;;;1.63;1.52;;;;;;;;;;5017006;28;20389;-61
2024/01/12 01:05:15;;;;;;;4.88;1.52;;;;;;;;;;5015075;28;20064;-61
2024/01/12 01:07:42;;;;;;;2.92;2.22;;;;;;;;;;5041061;28;20120;-61
2024/01/12 01:10:08;;;;;;;1.52;1.40;;;;;;;;;;5019972;28;20844;-62
2024/01/12 01:12:35;;;;;;;3.83;1.73;;;;;;;;;;5022170;28;20052;-61
2024/01/12 01:15:04;;;;;;;2.17;1.92;;;;;;;;;;5033424;28;20135;-62
2024/01/12 01:17:30;;;;;;;3.90;1.77;;;;;;;;;;5012767;28;20029;-62
2024/01/12 01:19:56;;;;;;;2.90;1.60;;;;;;;;;;5015157;28;20559;-62
2024/01/12 01:22:23;;;;;;;2.40;1.90;;;;;;;;;;5016855;28;20555;-61
2024/01/12 01:24:49;;;;;;;2.53;2.33;;;;;;;;;;5015666;28;20115;-61
2024/01/12 01:27:15;;;;;;;2.53;2.22;;;;;;;;;;5009085;28;20026;-61
2024/01/12 01:29:41;;;;;;;5.78;2.08;;;;;;;;;;5011202;28;20029;-62
2024/01/12 01:32:07;;;;;;;3.53;1.83;;;;;;;;;;5015052;28;20051;-61
2024/01/12 01:34:34;;;;;;;2.25;2.03;;;;;;;;;;5012038;28;20030;-61
2024/01/12 01:37:02;;;;;;;5.05;2.47;;;;;;;;;;5014862;28;20105;-61
2024/01/12 01:39:29;;;;;;;3.60;2.80;;;;;;;;;;5031956;28;20555;-61
2024/01/12 01:41:56;;;;;;;9.07;2.45;;;;;;;;;;5019829;28;20026;-61
2024/01/12 01:44:25;;;;;;;2.53;2.08;;;;;;;;;;5021861;28;20029;-61
2024/01/12 01:46:51;;;;;;;2.45;2.10;;;;;;;;;;5015353;28;20030;-61
2024/01/12 01:49:18;;;;;;;1.85;1.70;;;;;;;;;;5012461;28;20406;-61
2024/01/12 01:51:44;;;;;;;6.85;2.85;;;;;;;;;;5026676;28;20049;-61
2024/01/12 01:54:10;;;;;;;6.38;2.00;;;;;;;;;;5010337;28;20073;-61
2024/01/12 01:56:39;;;;;;;1.80;1.70;;;;;;;;;;5006801;28;20033;-61
2024/01/12 01:59:06;;;;;;;2.15;1.88;;;;;;;;;;5016157;28;20405;-62
2024/01/12 02:01:32;;;;;;;4.30;2.05;;;;;;;;;;5016204;28;20017;-61
2024/01/12 02:03:59;;;;;;;2.10;1.98;;;;;;;;;;5017985;28;20068;-61
2024/01/12 02:06:26;;;;;;;2.33;2.05;;;;;;;;;;5016365;28;20540;-61
2024/01/12 02:08:53;;;;;;;7.45;2.15;;;;;;;;;;5020080;28;20040;-61
2024/01/12 02:11:19;;;;;;;2.17;1.98;;;;;;;;;;5037196;28;20032;-61
2024/01/12 02:13:45;;;;;;;3.67;2.75;;;;;;;;;;5014717;28;20037;-61
2024/01/12 02:16:12;;;;;;;1.80;1.70;;;;;;;;;;5023511;28;20032;-62
2024/01/12 02:18:38;;;;;;;3.38;2.05;;;;;;;;;;5016461;28;20021;-61
2024/01/12 02:21:04;;;;;;;3.30;2.20;;;;;;;;;;5021419;28;20039;-61
2024/01/12 02:23:30;;;;;;;2.13;1.92;;;;;;;;;;5017700;28;20037;-61
2024/01/12 02:25:56;;;;;;;2.58;2.33;;;;;;;;;;5013976;28;20030;-61
2024/01/12 02:28:22;;;;;;;2.72;2.17;;;;;;;;;;5017995;28;20107;-61
2024/01/12 02:30:48;;;;;;;2.97;1.92;;;;;;;;;;5016640;28;20038;-61
2024/01/12 02:33:15;;;;;;;2.13;1.92;;;;;;;;;;5020148;28;20021;-62
2024/01/12 02:35:41;;;;;;;5.72;2.15;;;;;;;;;;5023719;28;20025;-61
2024/01/12 02:38:07;;;;;;;2.83;1.90;;;;;;;;;;5012652;28;20037;-61
2024/01/12 02:40:33;;;;;;;3.28;2.28;;;;;;;;;;5021963;28;20151;-61
2024/01/12 02:43:01;;;;;;;2.35;1.88;;;;;;;;;;5018736;28;20511;-62
2024/01/12 02:45:27;;;;;;;2.00;1.70;;;;;;;;;;5016914;28;20052;-62
2024/01/12 02:47:53;;;;;;;9.38;2.10;;;;;;;;;;5025987;28;20033;-61
2024/01/12 02:50:19;;;;;;;1.58;1.48;;;;;;;;;;5019674;28;20071;-62
2024/01/12 02:52:49;;;;;;;3.70;1.95;;;;;;;;;;5021875;28;20070;-65
2024/01/12 02:55:15;;;;;;;1.92;1.70;;;;;;;;;;5018584;28;20549;-62
2024/01/12 02:57:41;;;;;;;8.27;2.47;;;;;;;;;;5012078;28;20034;-61
2024/01/12 03:00:08;;;;;;;5.63;2.05;;;;;;;;;;5016563;28;20083;-61
2024/01/12 03:02:34;;;;;;;2.97;1.98;;;;;;;;;;5019309;28;20504;-61
2024/01/12 03:05:00;;;;;;;8.77;2.22;;;;;;;;;;5014227;28;20065;-61
2024/01/12 03:07:26;;;;;;;6.90;2.10;;;;;;;;;;5018574;28;20036;-61
2024/01/12 03:09:52;;;;;;;1.77;1.67;;;;;;;;;;5014889;28;20044;-62
2024/01/12 03:12:18;;;;;;;5.82;2.20;;;;;;;;;;5019018;28;20132;-64
2024/01/12 03:14:44;;;;;;;4.20;1.60;;;;;;;;;;5016658;28;20473;-61
2024/01/12 03:17:10;;;;;;;3.60;2.20;;;;;;;;;;5015189;28;20034;-61
2024/01/12 03:19:36;;;;;;;1.95;1.80;;;;;;;;;;5015923;28;20096;-61
2024/01/12 03:22:03;;;;;;;2.97;2.00;;;;;;;;;;4997597;28;20550;-61
2024/01/12 03:24:29;;;;;;;2.03;1.88;;;;;;;;;;5030487;28;20056;-61
2024/01/12 03:26:55;;;;;;;3.20;1.77;;;;;;;;;;5013922;28;20056;-61
2024/01/12 03:29:21;;;;;;;1.77;1.67;;;;;;;;;;5019669;28;20033;-62
2024/01/12 03:31:47;;;;;;;1.70;1.60;;;;;;;;;;5015798;28;20101;-61
2024/01/12 03:34:13;;;;;;;2.90;1.70;;;;;;;;;;5015769;28;20025;-61
2024/01/12 03:36:39;;;;;;;1.70;1.60;;;;;;;;;;5014812;28;20101;-61
2024/01/12 03:39:10;;;;;;;3.22;1.88;;;;;;;;;;5013353;28;20093;-64
2024/01/12 03:41:39;;;;;;;6.43;1.90;;;;;;;;;;5024278;28;20481;-61
2024/01/12 03:44:06;;;;;;;5.25;1.83;;;;;;;;;;5019860;28;20452;-61
2024/01/12 03:46:32;;;;;;;3.50;1.42;;;;;;;;;;5028179;28;20336;-61
2024/01/12 03:49:01;;;;;;;1.83;1.70;;;;;;;;;;5023691;28;20033;-62
2024/01/12 03:51:27;;;;;;;3.42;1.95;;;;;;;;;;5020324;28;20097;-62
2024/01/12 03:53:53;;;;;;;7.63;1.90;;;;;;;;;;5018138;28;20030;-61
2024/01/12 03:56:19;;;;;;;1.77;1.67;;;;;;;;;;5016185;28;20562;-61
2024/01/12 03:58:45;;;;;;;2.88;1.80;;;;;;;;;;5014340;28;20037;-61
2024/01/12 04:01:12;;;;;;;3.28;2.03;;;;;;;;;;5017060;28;20028;-61
2024/01/12 04:03:38;;;;;;;6.82;1.95;;;;;;;;;;5020378;28;20030;-66
2024/01/12 04:06:08;;;;;;;1.88;1.77;;;;;;;;;;5034016;28;20060;-61
2024/01/12 04:08:34;;;;;;;2.05;1.85;;;;;;;;;;5040200;28;20480;-61
2024/01/12 04:11:01;;;;;;;3.78;1.75;;;;;;;;;;5015107;28;20026;-61
2024/01/12 04:13:27;;;;;;;1.67;1.58;;;;;;;;;;5016861;28;20038;-62
2024/01/12 04:15:53;;;;;;;1.73;1.63;;;;;;;;;;5015726;28;20060;-61
2024/01/12 04:18:20;;;;;;;4.07;2.00;;;;;;;;;;5013506;28;20029;-62
2024/01/12 04:20:46;;;;;;;3.28;1.80;;;;;;;;;;5014799;28;20033;-61
2024/01/12 04:23:12;;;;;;;2.95;2.08;;;;;;;;;;5009994;28;20053;-62
2024/01/12 04:25:38;;;;;;;2.03;1.73;;;;;;;;;;5016303;28;20031;-61
2024/01/12 04:28:05;;;;;;;3.60;1.40;;;;;;;;;;5011249;28;20486;-61
2024/01/12 04:30:31;;;;;;;1.85;1.75;;;;;;;;;;5010310;28;20404;-63
2024/01/12 04:32:57;;;;;;;4.65;1.65;;;;;;;;;;5011573;28;20040;-64
2024/01/12 04:35:23;;;;;;;4.32;1.90;;;;;;;;;;5014222;28;20791;-62
2024/01/12 04:37:50;;;;;;;1.50;1.50;;;;;;;;;;5016747;28;20029;-61
2024/01/12 04:40:16;;;;;;;2.88;1.63;;;;;;;;;;5019438;28;20596;-61
2024/01/12 04:42:42;;;;;;;1.83;1.73;;;;;;;;;;5014102;28;20029;-61
2024/01/12 04:45:09;;;;;;;2.70;1.77;;;;;;;;;;5014745;28;20025;-61
2024/01/12 04:47:35;;;;;;;1.73;1.63;;;;;;;;;;5013891;28;20049;-62
2024/01/12 04:50:01;;;;;;;2.80;1.65;;;;;;;;;;5026084;28;20042;-61
2024/01/12 04:52:28;;;;;;;2.47;1.77;;;;;;;;;;5021211;28;20485;-61
2024/01/12 04:54:54;;;;;;;1.50;1.40;;;;;;;;;;5017199;28;20037;-61
2024/01/12 04:57:20;;;;;;;3.40;1.50;;;;;;;;;;5023969;28;20222;-60
2024/01/12 04:59:46;;;;;;;2.60;1.50;;;;;;;;;;5022730;28;20596;-64
2024/01/12 05:02:12;;;;;;;3.85;1.58;;;;;;;;;;5021728;28;20026;-61
2024/01/12 05:04:38;;;;;;;6.43;1.80;;;;;;;;;;5021424;28;20615;-62
2024/01/12 05:07:05;;;;;;;8.13;1.58;;;;;;;;;;5019148;28;20040;-61
2024/01/12 05:09:31;;;;;;;1.52;1.42;;;;;;;;;;5016935;28;20029;-62
2024/01/12 05:11:59;;;;;;;1.58;1.48;;;;;;;;;;5015343;28;20033;-62
2024/01/12 05:14:26;;;;;;;2.85;1.45;;;;;;;;;;5013624;28;20033;-64
2024/01/12 05:16:52;;;;;;;3.97;1.90;;;;;;;;;;5031770;28;20021;-61
2024/01/12 05:19:18;;;;;;;1.55;1.45;;;;;;;;;;5008390;28;20279;-61
2024/01/12 05:21:45;;;;;;;1.38;1.38;;;;;;;;;;5013826;28;20037;-61
2024/01/12 05:24:11;;;;;;;5.20;1.48;;;;;;;;;;5018950;28;20434;-61
2024/01/12 05:26:38;;;;;;;1.67;1.58;;;;;;;;;;5016058;28;20040;-62
2024/01/12 05:29:04;;;;;;;1.45;1.38;;;;;;;;;;5029023;28;20088;-62
2024/01/12 05:31:30;;;;;;;1.73;1.45;;;;;;;;;;5013008;28;20579;-61
2024/01/12 05:33:56;;;;;;;3.42;1.48;;;;;;;;;;5036671;28;20470;-61
2024/01/12 05:36:23;;;;;;;2.95;1.52;;;;;;;;;;5038507;28;20065;-64
2024/01/12 05:38:49;;;;;;;1.25;1.25;;;;;;;;;;5013413;28;20049;-62
2024/01/12 05:41:15;;;;;;;1.65;1.55;;;;;;;;;;5018889;28;20250;-61
2024/01/12 05:43:41;;;;;;;3.35;1.70;;;;;;;;;;5010816;28;20036;-65
2024/01/12 05:46:07;;;;;;;4.28;2.15;;;;;;;;;;5022323;28;20077;-62
2024/01/12 05:48:34;;;;;;;5.28;2.10;;;;;;;;;;5010681;28;20026;-61
2024/01/12 05:51:00;;;;;;;5.82;1.80;;;;;;;;;;5011186;28;20060;-62
2024/01/12 05:53:26;;;;;;;1.58;1.48;;;;;;;;;;5031191;28;20031;-61
2024/01/12 05:55:53;;;;;;;1.60;1.50;;;;;;;;;;5038623;28;20053;-61
2024/01/12 05:58:19;;;;;;;1.88;1.67;;;;;;;;;;5018058;28;20033;-61
2024/01/12 06:00:46;;;;;;;1.73;1.63;;;;;;;;;;5019115;28;20033;-61
2024/01/12 06:03:12;;;;;;;2.03;1.80;;;;;;;;;;5013917;28;20077;-61
2024/01/12 06:05:39;;;;;;;1.60;1.50;;;;;;;;;;5012336;28;20038;-61
2024/01/12 06:08:05;;;;;;;1.95;1.73;;;;;;;;;;5016329;28;20175;-61
2024/01/12 06:10:31;;;;;;;2.30;1.85;;;;;;;;;;5017392;28;20033;-61
2024/01/12 06:12:57;;;;;;;2.10;1.90;;;;;;;;;;5023051;28;20044;-61
2024/01/12 06:15:23;;;;;;;3.70;2.30;;;;;;;;;;5011403;28;20108;-61
2024/01/12 06:17:50;;;;;;;2.83;2.00;;;;;;;;;;5010701;28;20022;-61
2024/01/12 06:20:16;;;;;;;4.47;1.95;;;;;;;;;;5015659;28;20079;-62
2024/01/12 06:22:49;;;;;;;4.20;2.25;;;;;;;;;;5027489;28;20168;-60
2024/01/12 06:25:15;;;;;;;3.30;2.42;;;;;;;;;;5039329;28;20393;-61
2024/01/12 06:27:41;;;;;;;1.90;1.80;;;;;;;;;;5015813;28;20025;-61
2024/01/12 06:30:08;;;;;;;3.20;2.35;;;;;;;;;;5028795;28;20583;-62
2024/01/12 06:32:34;;;;;;;2.13;1.90;;;;;;;;;;5020693;28;20086;-61
2024/01/12 06:35:00;;;;;;;3.53;2.22;;;;;;;;;;5024820;28;20030;-61
2024/01/12 06:37:26;;;;;;;3.85;2.45;;;;;;;;;;5046327;28;20028;-61
2024/01/12 06:39:55;;;;;;;3.78;2.72;;;;;;;;;;5022207;28;20111;-61
2024/01/12 06:42:21;;;;;;;4.35;2.10;;;;;;;;;;5021006;28;20033;-61
2024/01/12 06:44:48;;;;;;;4.63;2.38;;;;;;;;;;5021357;28;20026;-62
2024/01/12 06:47:14;;;;;;;3.63;2.45;;;;;;;;;;5015939;28;20037;-61
2024/01/12 06:49:45;;;;;;;4.22;2.78;;;;;;;;;;5026935;28;20030;-62
2024/01/12 06:52:11;;;;;;;3.10;2.80;;;;;;;;;;5028054;28;20029;-62
2024/01/12 06:54:37;;;;;;;5.38;2.33;;;;;;;;;;5012823;28;20029;-62
2024/01/12 06:57:04;;;;;;;2.53;2.17;;;;;;;;;;5011472;28;20307;-61
2024/01/12 06:59:30;;;;;;;2.72;2.45;;;;;;;;;;5013484;28;20318;-61
2024/01/12 07:01:56;;;;;;;3.20;2.90;;;;;;;;;;5012650;28;20031;-61
2024/01/12 07:04:22;;;;;;;2.85;2.45;;;;;;;;;;5014251;28;20030;-62
2024/01/12 07:06:48;;;;;;;3.30;2.60;;;;;;;;;;5013619;28;20033;-61
2024/01/12 07:09:15;;;;;;;5.10;2.45;;;;;;;;;;5010597;28;20056;-61
2024/01/12 07:11:44;;;;;;;4.25;2.25;;;;;;;;;;5027967;28;20035;-61
2024/01/12 07:14:11;;;;;;;3.03;2.30;;;;;;;;;;5010863;28;20108;-61
2024/01/12 07:16:38;;;;;;;2.78;2.42;;;;;;;;;;5022424;28;20025;-61
2024/01/12 07:19:04;;;;;;;3.50;2.78;;;;;;;;;;5030802;28;20040;-61
2024/01/12 07:21:30;;;;;;;2.92;2.63;;;;;;;;;;5017486;28;20032;-61
2024/01/12 07:23:56;;;;;;;6.30;2.80;;;;;;;;;;5012741;28;20022;-62
2024/01/12 07:26:22;;;;;;;3.22;2.47;;;;;;;;;;5021850;28;20040;-61
2024/01/12 07:28:49;;;;;;;3.47;2.55;;;;;;;;;;5007262;28;20030;-61
2024/01/12 07:31:15;;;;;;;3.25;2.85;;;;;;;;;;5026254;28;20080;-61
2024/01/12 07:33:41;;;;;;;3.45;2.40;;;;;;;;;;5019809;28;20029;-62
2024/01/12 07:36:08;;;;;;;2.88;2.58;;;;;;;;;;5020425;28;20024;-64
2024/01/12 07:38:34;;;;;;;4.43;2.63;;;;;;;;;;5028698;28;20029;-61
2024/01/12 07:41:00;;;;;;;3.45;2.95;;;;;;;;;;5018735;28;20029;-61
2024/01/12 07:43:30;;;;;;;2.60;2.40;;;;;;;;;;5020121;28;20481;-61
2024/01/12 07:45:59;;;;;;;4.13;3.13;;;;;;;;;;5021524;28;20034;-61
2024/01/12 07:48:26;;;;;;;3.63;2.80;;;;;;;;;;5024846;28;20493;-62
2024/01/12 07:50:52;;;;;;;13.98;3.13;;;;;;;;;;5015007;28;20060;-61
2024/01/12 07:53:18;;;;;;;2.85;2.47;;;;;;;;;;5018205;28;20037;-61
2024/01/12 07:55:44;;;;;;;3.92;2.47;;;;;;;;;;5020915;28;20072;-62
2024/01/12 07:58:11;;;;;;;3.15;2.70;;;;;;;;;;5018211;28;20032;-61
2024/01/12 08:00:37;;;;;;;2.47;2.28;;;;;;;;;;5030773;28;20018;-61
2024/01/12 08:03:03;;;;;;;3.50;2.65;;;;;;;;;;5021827;28;20032;-61
2024/01/12 08:05:29;;;;;;;2.58;2.38;;;;;;;;;;5013706;28;20381;-61
2024/01/12 08:07:56;;;;;;;4.90;3.10;;;;;;;;;;5013158;28;20029;-61
2024/01/12 08:10:22;;;;;;;3.17;2.63;;;;;;;;;;5016391;28;20025;-62
2024/01/12 08:12:49;;;;;;;3.78;2.90;;;;;;;;;;5012740;28;20288;-61
2024/01/12 08:15:15;;;;;;;2.90;2.58;;;;;;;;;;5018446;28;20096;-60
2024/01/12 08:17:42;;;;;;;3.10;2.55;;;;;;;;;;5013716;28;20034;-61
2024/01/12 08:20:08;;;;;;;4.07;2.42;;;;;;;;;;5008583;28;20508;-62
2024/01/12 08:22:34;;;;;;;3.17;2.92;;;;;;;;;;5017238;28;20499;-62
2024/01/12 08:25:01;;;;;;;6.90;3.15;;;;;;;;;;5014404;28;20030;-62
2024/01/12 08:27:27;;;;;;;3.60;2.67;;;;;;;;;;5014560;28;20108;-62
2024/01/12 08:29:53;;;;;;;3.15;2.25;;;;;;;;;;5011104;28;20025;-66
2024/01/12 08:32:20;;;;;;;3.58;2.38;;;;;;;;;;5020103;28;20033;-62
2024/01/12 08:34:46;;;;;;;3.83;2.53;;;;;;;;;;5018179;28;20489;-62
2024/01/12 08:37:12;;;;;;;7.47;3.83;;;;;;;;;;5018051;28;20026;-61
2024/01/12 08:39:38;;;;;;;11.05;2.63;;;;;;;;;;5021508;28;20130;-66
2024/01/12 08:42:04;;;;;;;3.42;3.13;;;;;;;;;;5005987;28;20393;-61
2024/01/12 08:44:31;;;;;;;3.47;2.75;;;;;;;;;;5019354;28;20434;-63
2024/01/12 08:46:57;;;;;;;5.75;2.72;;;;;;;;;;5006755;28;20084;-61
2024/01/12 08:49:24;;;;;;;4.45;3.10;;;;;;;;;;5020901;28;20032;-64
2024/01/12 08:51:51;;;;;;;7.22;3.53;;;;;;;;;;5023285;28;20115;-61
2024/01/12 08:54:18;;;;;;;4.30;3.17;;;;;;;;;;5019452;28;20079;-61
2024/01/12 08:56:44;;;;;;;3.60;3.30;;;;;;;;;;5030063;28;20112;-62
2024/01/12 08:59:10;;;;;;;4.57;3.40;;;;;;;;;;5028524;28;20030;-61
2024/01/12 09:01:36;;;;;;;5.03;3.15;;;;;;;;;;5015162;28;20025;-62
2024/01/12 09:04:02;;;;;;;4.07;3.60;;;;;;;;;;5015619;28;20037;-61
2024/01/12 09:06:29;;;;;;;5.05;3.78;;;;;;;;;;5013198;28;20025;-62
2024/01/12 09:08:55;;;;;;;5.10;3.55;;;;;;;;;;5003518;28;20041;-62
2024/01/12 09:11:22;;;;;;;3.70;3.13;;;;;;;;;;5012328;28;20037;-62
2024/01/12 09:13:48;;;;;;;3.47;3.05;;;;;;;;;;4997921;28;20486;-61
2024/01/12 09:16:15;;;;;;;4.68;3.35;;;;;;;;;;5018683;28;20266;-61
2024/01/12 09:18:43;;;;;;;4.72;3.40;;;;;;;;;;5025741;28;20478;-61
2024/01/12 09:21:14;;;;;;;4.90;3.60;;;;;;;;;;5009913;28;20037;-61
2024/01/12 09:23:41;;;;;;;3.53;3.15;;;;;;;;;;5011782;28;20021;-61
2024/01/12 09:26:09;;;;;;;3.95;3.20;;;;;;;;;;5028542;28;20037;-61
2024/01/12 09:28:35;;;;;;;4.13;3.72;;;;;;;;;;5010170;28;20041;-61
2024/01/12 09:31:01;;;;;;;4.28;3.17;;;;;;;;;;5031164;28;20036;-61
2024/01/12 09:33:27;;;;;;;5.63;3.42;;;;;;;;;;5019540;28;20034;-61
2024/01/12 09:35:53;;;;;;;4.43;3.25;;;;;;;;;;5009782;28;20034;-61
2024/01/12 09:38:19;;;;;;;5.40;3.97;;;;;;;;;;5012279;28;20029;-61
2024/01/12 09:40:46;;;;;;;8.45;3.97;;;;;;;;;;5014384;28;20037;-61
2024/01/12 09:43:14;;;;;;;4.15;3.47;;;;;;;;;;5015839;28;20430;-61
2024/01/12 09:45:44;;;;;;;4.97;3.30;;;;;;;;;;5014415;28;20033;-61
2024/01/12 09:48:10;;;;;;;4.13;3.45;;;;;;;;;;5019577;28;20022;-61
2024/01/12 09:50:38;;;;;;;5.68;4.22;;;;;;;;;;5031485;28;20049;-60
2024/01/12 09:53:04;;;;;;;4.80;3.63;;;;;;;;;;5013483;28;20382;-60
2024/01/12 09:55:30;;;;;;;6.80;4.20;;;;;;;;;;5010636;28;20494;-62
2024/01/12 09:57:56;;;;;;;8.18;4.72;;;;;;;;;;5012224;28;20041;-62
2024/01/12 10:00:26;;;;;;;6.78;4.35;;;;;;;;;;5013136;28;20021;-64
2024/01/12 10:02:52;;;;;;;5.40;3.58;;;;;;;;;;5009551;28;20025;-61
2024/01/12 10:05:19;;;;;;;5.80;4.25;;;;;;;;;;5010597;28;20564;-61
2024/01/12 10:07:45;;;;;;;6.22;4.50;;;;;;;;;;5011839;28;20037;-62
2024/01/12 10:10:12;;;;;;;5.88;4.22;;;;;;;;;;5027301;28;20453;-61
2024/01/12 10:12:38;;;;;;;8.90;3.70;;;;;;;;;;5008240;28;20709;-63
2024/01/12 10:15:05;;;;;;;7.93;4.47;;;;;;;;;;5017607;28;20034;-62
2024/01/12 10:17:33;;;;;;;6.97;4.80;;;;;;;;;;5014342;28;20032;-61
2024/01/12 10:19:59;;;;;;;6.15;4.40;;;;;;;;;;5018658;28;20041;-62
2024/01/12 10:22:25;;;;;;;6.60;4.78;;;;;;;;;;5014680;28;20060;-66
2024/01/12 10:24:58;;;;;;;7.65;4.63;;;;;;;;;;5012142;28;20022;-61
2024/01/12 10:27:24;;;;;;;8.63;5.15;;;;;;;;;;5028300;28;20033;-62
2024/01/12 10:29:50;;;;;;;8.93;5.35;;;;;;;;;;5024275;28;20038;-62
2024/01/12 10:32:20;;;;;;;7.38;3.97;;;;;;;;;;5018540;28;20033;-61
2024/01/12 10:34:50;;;;;;;7.35;4.90;;;;;;;;;;5018274;28;20084;-61
2024/01/12 10:37:16;;;;;;;7.95;5.18;;;;;;;;;;5014419;28;20034;-60
2024/01/12 10:39:46;;;;;;;8.00;5.55;;;;;;;;;;5016924;28;20273;-61
2024/01/12 10:42:13;;;;;;;9.00;6.03;;;;;;;;;;5021340;28;20033;-61
2024/01/12 10:44:39;;;;;;;7.28;5.43;;;;;;;;;;5008442;28;20041;-62
2024/01/12 10:47:06;;;;;;;8.98;5.45;;;;;;;;;;5020219;28;20048;-72
2024/01/12 10:49:42;;;;;;;8.07;5.82;;;;;;;;;;5022184;28;20352;-61
2024/01/12 10:52:14;;;;;;;8.52;5.82;;;;;;;;;;5013299;28;20044;-61
2024/01/12 10:54:46;;;;;;;9.73;5.35;;;;;;;;;;5021594;28;20056;-62
2024/01/12 10:57:13;;;;;;;11.02;6.18;;;;;;;;;;5022079;28;20030;-61
2024/01/12 10:59:40;;;;;;;10.48;6.15;;;;;;;;;;5023528;28;20041;-62
2024/01/12 11:02:08;;;;;;;9.55;5.78;;;;;;;;;;5019236;28;20067;-61
2024/01/12 11:04:34;;;;;;;11.43;6.85;;;;;;;;;;5018110;28;20022;-61
2024/01/12 11:07:00;;;;;;;13.00;7.63;;;;;;;;;;5008260;28;20057;-68
2024/01/12 11:09:27;;;;;;;12.77;7.03;;;;;;;;;;5019527;28;20724;-61
2024/01/12 11:12:00;;;;;;;18.17;8.27;;;;;;;;;;5011240;28;20045;-64
2024/01/12 11:14:26;;;;;;;12.52;7.47;;;;;;;;;;5024111;28;20480;-61
2024/01/12 11:16:53;;;;;;;10.48;7.03;;;;;;;;;;5021772;28;20034;-61
2024/01/12 11:19:20;;;;;;;16.33;7.28;;;;;;;;;;5014074;28;20025;-61
2024/01/12 11:21:46;;;;;;;14.10;7.57;;;;;;;;;;5018019;28;20029;-62
2024/01/12 11:24:12;;;;;;;13.15;7.75;;;;;;;;;;5021472;28;20018;-63
2024/01/12 11:26:41;;;;;;;13.40;8.48;;;;;;;;;;5009831;28;20547;-61
2024/01/12 11:29:13;;;;;;;13.25;7.90;;;;;;;;;;5017249;28;20036;-62
2024/01/12 11:31:48;;;;;;;9.88;6.90;;;;;;;;;;5009806;28;20112;-63
2024/01/12 11:34:15;;;;;;;14.52;7.20;;;;;;;;;;5016699;28;20032;-61
2024/01/12 11:36:42;;;;;;;15.60;7.45;;;;;;;;;;5011063;28;20026;-61
2024/01/12 11:39:12;;;;;;;15.52;8.18;;;;;;;;;;5013301;28;20028;-62
2024/01/12 11:41:43;;;;;;;12.73;7.47;;;;;;;;;;5015249;28;20081;-64
2024/01/12 11:44:09;;;;;;;14.38;8.07;;;;;;;;;;5021216;28;20101;-63
2024/01/12 11:46:35;;;;;;;10.40;6.40;;;;;;;;;;5011133;28;20033;-63
2024/01/12 11:49:06;;;;;;;13.60;7.20;;;;;;;;;;5009564;28;20042;-61
2024/01/12 11:51:32;;;;;;;10.82;6.70;;;;;;;;;;5013115;28;20463;-61
2024/01/12 11:53:58;;;;;;;12.85;7.97;;;;;;;;;;5034197;28;20091;-61
2024/01/12 11:56:27;;;;;;;10.80;6.95;;;;;;;;;;5011166;28;20057;-61
2024/01/12 11:58:54;;;;;;;10.32;6.43;;;;;;;;;;5031300;28;20083;-61
2024/01/12 12:01:21;;;;;;;15.25;7.55;;;;;;;;;;5011134;28;20038;-62
2024/01/12 12:03:49;;;;;;;12.55;6.97;;;;;;;;;;5016669;28;20465;-62
2024/01/12 12:06:16;;;;;;;14.55;7.55;;;;;;;;;;5019388;28;20087;-61
2024/01/12 12:08:42;;;;;;;10.73;6.07;;;;;;;;;;5013703;28;20121;-61
2024/01/12 12:11:09;;;;;;;13.90;7.88;;;;;;;;;;5020073;28;20108;-61
2024/01/12 12:13:36;;;;;;;12.93;6.82;;;;;;;;;;5014732;28;20029;-60
2024/01/12 12:16:03;;;;;;;10.80;7.07;;;;;;;;;;5010029;28;20042;-61
2024/01/12 12:18:32;;;;;;;13.75;7.45;;;;;;;;;;5024807;28;20099;-61
2024/01/12 12:21:00;;;;;;;14.18;7.70;;;;;;;;;;5029451;28;20485;-60
2024/01/12 12:23:27;;;;;;;13.93;7.45;;;;;;;;;;5008913;28;20030;-61
2024/01/12 12:25:54;;;;;;;10.07;6.57;;;;;;;;;;5019505;28;20040;-61
2024/01/12 12:28:20;;;;;;;13.55;6.15;;;;;;;;;;5031250;28;20029;-61
2024/01/12 12:30:46;;;;;;;11.25;7.15;;;;;;;;;;5020645;28;20041;-62
2024/01/12 12:33:12;;;;;;;24.83;7.75;;;;;;;;;;5007061;28;21371;-61
2024/01/12 12:35:39;;;;;;;11.90;7.50;;;;;;;;;;5027974;28;20160;-61
2024/01/12 12:38:05;;;;;;;10.93;6.50;;;;;;;;;;5014732;28;20103;-61
2024/01/12 12:40:32;;;;;;;13.50;7.88;;;;;;;;;;5013233;28;20048;-61
2024/01/12 12:42:58;;;;;;;16.88;7.57;;;;;;;;;;5011446;28;20265;-61
2024/01/12 12:45:25;;;;;;;11.43;7.30;;;;;;;;;;5011193;28;20034;-61
2024/01/12 12:47:51;;;;;;;13.98;7.82;;;;;;;;;;5018544;28;20022;-62
2024/01/12 12:50:18;;;;;;;11.50;7.28;;;;;;;;;;5024422;28;20413;-62
2024/01/12 12:52:44;;;;;;;13.60;7.07;;;;;;;;;;5017911;28;20125;-62
2024/01/12 12:55:11;;;;;;;11.75;7.32;;;;;;;;;;5006546;28;20041;-61
2024/01/12 12:57:37;;;;;;;11.50;8.00;;;;;;;;;;5013749;28;20021;-61
2024/01/12 13:00:05;;;;;;;11.63;7.47;;;;;;;;;;5008918;28;20108;-61
2024/01/12 13:02:34;;;;;;;14.63;7.40;;;;;;;;;;5012007;28;20056;-61
2024/01/12 13:05:00;;;;;;;12.63;7.65;;;;;;;;;;5011634;28;20034;-62
2024/01/12 13:07:26;;;;;;;14.05;6.70;;;;;;;;;;5004266;28;20039;-61
2024/01/12 13:09:53;;;;;;;9.68;6.40;;;;;;;;;;5016602;28;20163;-61
2024/01/12 13:12:19;;;;;;;12.52;6.95;;;;;;;;;;5007560;28;20126;-62
2024/01/12 13:14:46;;;;;;;12.10;7.15;;;;;;;;;;5013131;28;20434;-61
2024/01/12 13:17:12;;;;;;;11.68;6.80;;;;;;;;;;5030728;28;20045;-63
2024/01/12 13:19:38;;;;;;;13.27;5.72;;;;;;;;;;5011316;28;20525;-61
2024/01/12 13:22:04;;;;;;;10.75;6.53;;;;;;;;;;5014604;28;20030;-64
2024/01/12 13:24:31;;;;;;;11.93;7.95;;;;;;;;;;5018024;28;20056;-62
2024/01/12 13:26:57;;;;;;;16.33;9.43;;;;;;;;;;5012337;28;20035;-61
2024/01/12 13:29:23;;;;;;;12.30;8.75;;;;;;;;;;5021431;28;20040;-61
2024/01/12 13:31:49;;;;;;;10.80;5.95;;;;;;;;;;5024665;28;20033;-61
2024/01/12 13:34:16;;;;;;;8.30;6.28;;;;;;;;;;5014766;28;20030;-61
2024/01/12 13:36:47;;;;;;;11.02;7.03;;;;;;;;;;5008285;28;20036;-61
2024/01/12 13:39:13;;;;;;;8.68;6.40;;;;;;;;;;5012298;28;20013;-61
2024/01/12 13:41:40;;;;;;;10.23;6.22;;;;;;;;;;5014778;28;20022;-61
2024/01/12 13:44:06;;;;;;;10.35;6.38;;;;;;;;;;5017966;28;20034;-61
2024/01/12 13:46:32;;;;;;;14.38;7.55;;;;;;;;;;5015720;28;20505;-63
2024/01/12 13:49:00;;;;;;;10.93;7.00;;;;;;;;;;5016338;28;20038;-61
2024/01/12 13:51:26;;;;;;;11.80;7.43;;;;;;;;;;5011854;28;20053;-61
2024/01/12 13:53:52;;;;;;;16.33;8.50;;;;;;;;;;5017893;28;20398;-61
2024/01/12 13:56:19;;;;;;;16.38;8.35;;;;;;;;;;5011073;28;20049;-61
2024/01/12 13:58:45;;;;;;;11.38;6.45;;;;;;;;;;5017458;28;20018;-61
2024/01/12 14:01:12;;;;;;;9.40;6.00;;;;;;;;;;5017289;28;20057;-61
2024/01/12 14:03:38;;;;;;;9.88;5.28;;;;;;;;;;5011594;28;20024;-62
2024/01/12 14:06:05;;;;;;;12.73;6.93;;;;;;;;;;5037158;28;20595;-62
2024/01/12 14:08:31;;;;;;;10.45;6.28;;;;;;;;;;5005500;28;20022;-61
2024/01/12 14:10:58;;;;;;;9.73;6.05;;;;;;;;;;5014781;28;20308;-61
2024/01/12 14:13:24;;;;;;;11.95;6.50;;;;;;;;;;5018843;28;20033;-61
2024/01/12 14:15:51;;;;;;;10.00;5.80;;;;;;;;;;5013927;28;20045;-61
2024/01/12 14:18:17;;;;;;;11.00;6.55;;;;;;;;;;5008314;28;20033;-61
2024/01/12 14:20:43;;;;;;;9.68;6.65;;;;;;;;;;5018174;28;20514;-61
2024/01/12 14:23:09;;;;;;;10.20;6.50;;;;;;;;;;5020463;28;20026;-61
2024/01/12 14:25:35;;;;;;;11.27;6.65;;;;;;;;;;5023192;28;20104;-62
2024/01/12 14:28:02;;;;;;;11.77;6.97;;;;;;;;;;5024942;28;20489;-61
2024/01/12 14:30:29;;;;;;;12.38;6.50;;;;;;;;;;5013277;28;20029;-62
2024/01/12 14:32:56;;;;;;;11.25;7.07;;;;;;;;;;5022636;28;20033;-62
2024/01/12 14:35:23;;;;;;;13.10;7.63;;;;;;;;;;5020342;28;20563;-62
2024/01/12 14:37:49;;;;;;;10.55;6.97;;;;;;;;;;5038394;28;20037;-62